sensor_id;sensor_type;location;lat;lon;timestamp;pressure;altitude;pressure_sealevel;temperature;humidity
71857;BME280;63344;46.980;28.882;2023-04-05T00:02:00;100081.22;;;4.11;96.29
71857;BME280;63344;46.980;28.882;2023-04-05T00:04:28;100081.34;;;4.05;96.73
71857;BME280;63344;46.980;28.882;2023-04-05T00:06:56;100089.28;;;4.04;97.08
71857;BME280;63344;46.980;28.882;2023-04-05T00:09:24;100084.03;;;4.04;97.28
71857;BME280;63344;46.980;28.882;2023-04-05T00:11:52;100073.53;;;4.04;97.00
71857;BME280;63344;46.980;28.882;2023-04-05T00:14:19;100074.53;;;3.98;97.04
71857;BME280;63344;46.980;28.882;2023-04-05T00:16:46;100085.06;;;3.96;96.88
71857;BME280;63344;46.980;28.882;2023-04-05T00:19:13;100084.19;;;3.96;97.06
71857;BME280;63344;46.980;28.882;2023-04-05T00:21:41;100074.66;;;3.90;96.93
71857;BME280;63344;46.980;28.882;2023-04-05T00:24:08;100073.88;;;3.87;96.97
71857;BME280;63344;46.980;28.882;2023-04-05T00:26:41;100065.97;;;3.87;97.04
71857;BME280;63344;46.980;28.882;2023-04-05T00:29:10;100067.81;;;3.83;96.61
71857;BME280;63344;46.980;28.882;2023-04-05T00:31:37;100076.63;;;3.79;96.82
71857;BME280;63344;46.980;28.882;2023-04-05T00:34:04;100080.22;;;3.75;97.06
71857;BME280;63344;46.980;28.882;2023-04-05T00:36:34;100089.00;;;3.75;97.30
71857;BME280;63344;46.980;28.882;2023-04-05T00:39:02;100089.00;;;3.75;97.75
71857;BME280;63344;46.980;28.882;2023-04-05T00:41:29;100086.38;;;3.74;97.53
71857;BME280;63344;46.980;28.882;2023-04-05T00:43:57;100091.63;;;3.74;97.24
71857;BME280;63344;46.980;28.882;2023-04-05T00:46:25;100085.56;;;3.72;97.39
71857;BME280;63344;46.980;28.882;2023-04-05T00:48:54;100098.69;;;3.72;97.25
71857;BME280;63344;46.980;28.882;2023-04-05T00:51:22;100092.53;;;3.71;96.99
71857;BME280;63344;46.980;28.882;2023-04-05T00:53:50;100085.56;;;3.70;97.07
71857;BME280;63344;46.980;28.882;2023-04-05T00:56:19;100077.72;;;3.69;96.57
71857;BME280;63344;46.980;28.882;2023-04-05T00:58:47;100087.38;;;3.68;96.80
71857;BME280;63344;46.980;28.882;2023-04-05T01:01:21;100090.00;;;3.67;96.77
71857;BME280;63344;46.980;28.882;2023-04-05T01:03:56;100093.56;;;3.64;96.75
71857;BME280;63344;46.980;28.882;2023-04-05T01:06:43;100091.91;;;3.58;95.98
71857;BME280;63344;46.980;28.882;2023-04-05T01:09:20;100093.75;;;3.53;96.15
71857;BME280;63344;46.980;28.882;2023-04-05T01:11:51;100079.78;;;3.51;96.38
71857;BME280;63344;46.980;28.882;2023-04-05T01:14:21;100087.72;;;3.50;96.35
71857;BME280;63344;46.980;28.882;2023-04-05T01:16:48;100072.88;;;3.47;96.32
71857;BME280;63344;46.980;28.882;2023-04-05T01:19:17;100094.81;;;3.45;96.03
71857;BME280;63344;46.980;28.882;2023-04-05T01:25:08;100094.78;;;3.46;96.43
71857;BME280;63344;46.980;28.882;2023-04-05T01:30:16;100087.03;;;3.38;95.95
71857;BME280;63344;46.980;28.882;2023-04-05T01:36:05;100078.38;;;3.33;96.27
71857;BME280;63344;46.980;28.882;2023-04-05T01:38:38;100081.94;;;3.31;96.32
71857;BME280;63344;46.980;28.882;2023-04-05T01:41:06;100089.78;;;3.31;96.11
71857;BME280;63344;46.980;28.882;2023-04-05T01:43:33;100087.16;;;3.31;96.36
71857;BME280;63344;46.980;28.882;2023-04-05T01:46:01;100080.22;;;3.30;96.43
71857;BME280;63344;46.980;28.882;2023-04-05T01:48:28;100076.75;;;3.28;96.27
71857;BME280;63344;46.980;28.882;2023-04-05T01:50:56;100071.50;;;3.28;96.45
71857;BME280;63344;46.980;28.882;2023-04-05T01:53:25;100057.50;;;3.27;96.53
71857;BME280;63344;46.980;28.882;2023-04-05T01:55:52;100064.53;;;3.25;96.39
71857;BME280;63344;46.980;28.882;2023-04-05T01:58:19;100067.22;;;3.22;96.18
71857;BME280;63344;46.980;28.882;2023-04-05T02:00:47;100066.38;;;3.22;96.18
71857;BME280;63344;46.980;28.882;2023-04-05T02:03:14;100062.00;;;3.21;96.48
71857;BME280;63344;46.980;28.882;2023-04-05T02:05:42;100053.31;;;3.15;96.07
71857;BME280;63344;46.980;28.882;2023-04-05T02:08:09;100041.22;;;3.08;95.56
71857;BME280;63344;46.980;28.882;2023-04-05T02:10:36;100043.97;;;3.02;95.99
71857;BME280;63344;46.980;28.882;2023-04-05T02:13:03;100036.13;;;2.99;96.09
71857;BME280;63344;46.980;28.882;2023-04-05T02:15:31;100040.56;;;2.95;95.99
71857;BME280;63344;46.980;28.882;2023-04-05T02:17:59;100045.88;;;2.91;96.26
71857;BME280;63344;46.980;28.882;2023-04-05T02:20:30;100038.03;;;2.91;96.44
71857;BME280;63344;46.980;28.882;2023-04-05T02:22:59;100042.38;;;2.92;96.38
71857;BME280;63344;46.980;28.882;2023-04-05T02:25:28;100056.44;;;2.88;95.72
71857;BME280;63344;46.980;28.882;2023-04-05T02:27:55;100063.44;;;2.87;96.16
71857;BME280;63344;46.980;28.882;2023-04-05T02:30:23;100062.56;;;2.87;95.86
71857;BME280;63344;46.980;28.882;2023-04-05T02:32:50;100045.97;;;2.86;95.72
71857;BME280;63344;46.980;28.882;2023-04-05T02:35:17;100069.63;;;2.83;95.54
71857;BME280;63344;46.980;28.882;2023-04-05T02:37:46;100075.75;;;2.82;95.70
71857;BME280;63344;46.980;28.882;2023-04-05T02:40:14;100079.28;;;2.79;95.85
71857;BME280;63344;46.980;28.882;2023-04-05T02:42:41;100078.50;;;2.74;95.94
71857;BME280;63344;46.980;28.882;2023-04-05T02:45:09;100063.72;;;2.70;95.70
71857;BME280;63344;46.980;28.882;2023-04-05T02:47:37;100061.94;;;2.72;96.34
71857;BME280;63344;46.980;28.882;2023-04-05T02:50:05;100066.34;;;2.70;95.91
71857;BME280;63344;46.980;28.882;2023-04-05T02:52:32;100071.56;;;2.72;95.91
71857;BME280;63344;46.980;28.882;2023-04-05T02:55:00;100064.56;;;2.72;96.08
71857;BME280;63344;46.980;28.882;2023-04-05T02:57:27;100062.84;;;2.70;95.66
71857;BME280;63344;46.980;28.882;2023-04-05T02:59:55;100047.22;;;2.64;96.05
71857;BME280;63344;46.980;28.882;2023-04-05T03:02:22;100058.59;;;2.61;95.96
71857;BME280;63344;46.980;28.882;2023-04-05T03:04:52;100065.53;;;2.65;96.26
71857;BME280;63344;46.980;28.882;2023-04-05T03:07:20;100067.28;;;2.66;96.29
71857;BME280;63344;46.980;28.882;2023-04-05T03:09:49;100055.94;;;2.66;96.24
71857;BME280;63344;46.980;28.882;2023-04-05T03:12:17;100052.41;;;2.65;96.35
71857;BME280;63344;46.980;28.882;2023-04-05T03:14:44;100060.22;;;2.70;96.42
71857;BME280;63344;46.980;28.882;2023-04-05T03:17:12;100049.69;;;2.71;96.39
71857;BME280;63344;46.980;28.882;2023-04-05T03:19:41;100052.31;;;2.73;95.93
71857;BME280;63344;46.980;28.882;2023-04-05T03:22:11;100048.81;;;2.72;95.82
71857;BME280;63344;46.980;28.882;2023-04-05T03:24:39;100051.44;;;2.72;95.89
71857;BME280;63344;46.980;28.882;2023-04-05T03:27:08;100064.56;;;2.72;95.88
71857;BME280;63344;46.980;28.882;2023-04-05T03:29:35;100061.94;;;2.72;96.25
71857;BME280;63344;46.980;28.882;2023-04-05T03:32:03;100046.19;;;2.72;95.71
71857;BME280;63344;46.980;28.882;2023-04-05T03:34:30;100049.75;;;2.70;95.89
71857;BME280;63344;46.980;28.882;2023-04-05T03:36:59;100055.84;;;2.69;95.70
71857;BME280;63344;46.980;28.882;2023-04-05T03:39:29;100048.00;;;2.67;95.52
71857;BME280;63344;46.980;28.882;2023-04-05T03:41:56;100061.16;;;2.66;95.85
71857;BME280;63344;46.980;28.882;2023-04-05T03:44:23;100060.28;;;2.65;95.46
71857;BME280;63344;46.980;28.882;2023-04-05T03:46:51;100052.41;;;2.65;95.70
71857;BME280;63344;46.980;28.882;2023-04-05T03:49:18;100055.03;;;2.65;95.81
71857;BME280;63344;46.980;28.882;2023-04-05T03:51:46;100060.25;;;2.68;96.01
71857;BME280;63344;46.980;28.882;2023-04-05T03:54:13;100057.59;;;2.70;95.77
71857;BME280;63344;46.980;28.882;2023-04-05T03:56:40;100053.25;;;2.67;95.22
71857;BME280;63344;46.980;28.882;2023-04-05T03:59:07;100058.59;;;2.61;95.16
71857;BME280;63344;46.980;28.882;2023-04-05T04:01:36;100055.19;;;2.56;95.27
71857;BME280;63344;46.980;28.882;2023-04-05T04:04:08;100045.59;;;2.53;95.56
71857;BME280;63344;46.980;28.882;2023-04-05T04:06:35;100056.09;;;2.53;95.84
71857;BME280;63344;46.980;28.882;2023-04-05T04:09:03;100053.44;;;2.56;95.62
71857;BME280;63344;46.980;28.882;2023-04-05T04:11:32;100058.66;;;2.58;95.81
71857;BME280;63344;46.980;28.882;2023-04-05T04:13:59;100054.31;;;2.55;95.53
71857;BME280;63344;46.980;28.882;2023-04-05T04:16:27;100050.84;;;2.55;95.62
71857;BME280;63344;46.980;28.882;2023-04-05T04:19:00;100051.66;;;2.57;95.75
71857;BME280;63344;46.980;28.882;2023-04-05T04:21:28;100058.63;;;2.59;95.63
71857;BME280;63344;46.980;28.882;2023-04-05T04:24:06;100069.09;;;2.61;95.46
71857;BME280;63344;46.980;28.882;2023-04-05T04:26:33;100083.97;;;2.57;95.20
71857;BME280;63344;46.980;28.882;2023-04-05T04:29:06;100064.78;;;2.55;95.06
71857;BME280;63344;46.980;28.882;2023-04-05T04:31:38;100077.94;;;2.54;94.97
71857;BME280;63344;46.980;28.882;2023-04-05T04:34:06;100070.94;;;2.56;95.09
71857;BME280;63344;46.980;28.882;2023-04-05T04:36:33;100065.63;;;2.57;94.87
71857;BME280;63344;46.980;28.882;2023-04-05T04:39:01;100054.22;;;2.62;94.98
71857;BME280;63344;46.980;28.882;2023-04-05T04:41:32;100079.47;;;2.67;94.81
71857;BME280;63344;46.980;28.882;2023-04-05T04:44:00;100077.69;;;2.69;94.23
71857;BME280;63344;46.980;28.882;2023-04-05T04:46:33;100057.66;;;2.65;93.86
71857;BME280;63344;46.980;28.882;2023-04-05T04:49:09;100074.22;;;2.69;94.09
71857;BME280;63344;46.980;28.882;2023-04-05T04:51:37;100075.03;;;2.72;94.09
71857;BME280;63344;46.980;28.882;2023-04-05T04:54:05;100074.97;;;2.75;93.97
71857;BME280;63344;46.980;28.882;2023-04-05T04:56:34;100066.25;;;2.73;93.45
71857;BME280;63344;46.980;28.882;2023-04-05T04:59:02;100082.00;;;2.73;93.18
71857;BME280;63344;46.980;28.882;2023-04-05T05:01:30;100079.38;;;2.73;93.79
71857;BME280;63344;46.980;28.882;2023-04-05T05:03:57;100081.97;;;2.76;93.90
71857;BME280;63344;46.980;28.882;2023-04-05T05:06:25;100064.44;;;2.80;93.46
71857;BME280;63344;46.980;28.882;2023-04-05T05:08:53;100075.78;;;2.81;93.07
71857;BME280;63344;46.980;28.882;2023-04-05T05:11:24;100081.88;;;2.83;93.32
71857;BME280;63344;46.980;28.882;2023-04-05T05:13:54;100080.16;;;2.82;92.95
71857;BME280;63344;46.980;28.882;2023-04-05T05:16:22;100067.03;;;2.82;92.70
71857;BME280;63344;46.980;28.882;2023-04-05T05:18:50;100079.25;;;2.83;93.06
71857;BME280;63344;46.980;28.882;2023-04-05T05:21:23;100068.75;;;2.83;92.75
71857;BME280;63344;46.980;28.882;2023-04-05T05:23:50;100070.44;;;2.87;92.79
71857;BME280;63344;46.980;28.882;2023-04-05T05:26:17;100070.44;;;2.87;92.71
71857;BME280;63344;46.980;28.882;2023-04-05T05:28:44;100070.44;;;2.87;92.59
71857;BME280;63344;46.980;28.882;2023-04-05T05:31:13;100078.28;;;2.90;92.77
71857;BME280;63344;46.980;28.882;2023-04-05T05:33:41;100073.91;;;2.89;92.70
71857;BME280;63344;46.980;28.882;2023-04-05T05:36:08;100073.88;;;2.92;92.27
71857;BME280;63344;46.980;28.882;2023-04-05T05:38:35;100074.75;;;2.91;92.45
71857;BME280;63344;46.980;28.882;2023-04-05T05:41:03;100080.88;;;2.90;92.20
71857;BME280;63344;46.980;28.882;2023-04-05T05:43:31;100084.31;;;2.93;92.16
71857;BME280;63344;46.980;28.882;2023-04-05T05:46:02;100073.03;;;2.88;91.85
71857;BME280;63344;46.980;28.882;2023-04-05T05:48:29;100086.16;;;2.87;91.93
71857;BME280;63344;46.980;28.882;2023-04-05T05:50:58;100063.50;;;2.83;91.94
71857;BME280;63344;46.980;28.882;2023-04-05T05:53:38;100079.28;;;2.79;92.29
71857;BME280;63344;46.980;28.882;2023-04-05T05:56:06;100073.13;;;2.82;92.39
71857;BME280;63344;46.980;28.882;2023-04-05T05:58:36;100068.75;;;2.83;92.32
71857;BME280;63344;46.980;28.882;2023-04-05T06:01:07;100059.22;;;2.78;92.01
71857;BME280;63344;46.980;28.882;2023-04-05T06:03:34;100036.56;;;2.73;91.91
71857;BME280;63344;46.980;28.882;2023-04-05T06:06:03;100063.66;;;2.73;92.62
71857;BME280;63344;46.980;28.882;2023-04-05T06:08:34;100078.47;;;2.76;92.62
71857;BME280;63344;46.980;28.882;2023-04-05T06:11:02;100074.97;;;2.77;92.89
71857;BME280;63344;46.980;28.882;2023-04-05T06:13:29;100070.53;;;2.81;92.79
71857;BME280;63344;46.980;28.882;2023-04-05T06:16:00;100064.41;;;2.82;92.64
71857;BME280;63344;46.980;28.882;2023-04-05T06:18:29;100081.84;;;2.84;92.74
71857;BME280;63344;46.980;28.882;2023-04-05T06:20:58;100081.88;;;2.83;92.50
71857;BME280;63344;46.980;28.882;2023-04-05T06:23:25;100075.69;;;2.85;92.44
71857;BME280;63344;46.980;28.882;2023-04-05T06:25:52;100080.88;;;2.90;92.76
71857;BME280;63344;46.980;28.882;2023-04-05T06:28:19;100081.69;;;2.93;92.63
71857;BME280;63344;46.980;28.882;2023-04-05T06:30:46;100087.00;;;2.89;92.47
71857;BME280;63344;46.980;28.882;2023-04-05T06:33:14;100087.00;;;2.89;92.37
71857;BME280;63344;46.980;28.882;2023-04-05T06:35:41;100091.38;;;2.90;92.01
71857;BME280;63344;46.980;28.882;2023-04-05T06:38:08;100089.63;;;2.89;91.68
71857;BME280;63344;46.980;28.882;2023-04-05T06:40:36;100095.75;;;2.89;91.87
71857;BME280;63344;46.980;28.882;2023-04-05T06:43:03;100090.53;;;2.88;91.73
71857;BME280;63344;46.980;28.882;2023-04-05T06:45:30;100089.72;;;2.83;91.58
71857;BME280;63344;46.980;28.882;2023-04-05T06:47:58;100092.34;;;2.84;91.75
71857;BME280;63344;46.980;28.882;2023-04-05T06:50:25;100084.56;;;2.78;91.94
71857;BME280;63344;46.980;28.882;2023-04-05T06:52:53;100090.66;;;2.78;92.00
71857;BME280;63344;46.980;28.882;2023-04-05T06:55:20;100098.53;;;2.78;91.91
71857;BME280;63344;46.980;28.882;2023-04-05T06:57:48;100094.13;;;2.81;92.07
71857;BME280;63344;46.980;28.882;2023-04-05T07:00:15;100095.09;;;2.73;91.83
71857;BME280;63344;46.980;28.882;2023-04-05T07:02:43;100100.34;;;2.75;92.35
71857;BME280;63344;46.980;28.882;2023-04-05T07:05:11;100110.84;;;2.73;92.22
71857;BME280;63344;46.980;28.882;2023-04-05T07:07:40;100097.72;;;2.73;92.13
71857;BME280;63344;46.980;28.882;2023-04-05T07:10:09;100106.50;;;2.72;92.27
71857;BME280;63344;46.980;28.882;2023-04-05T07:12:38;100086.38;;;2.73;92.41
71857;BME280;63344;46.980;28.882;2023-04-05T07:15:08;100090.78;;;2.72;92.14
71857;BME280;63344;46.980;28.882;2023-04-05T07:17:36;100100.34;;;2.75;92.50
71857;BME280;63344;46.980;28.882;2023-04-05T07:20:04;100106.50;;;2.71;92.13
71857;BME280;63344;46.980;28.882;2023-04-05T07:22:35;100095.09;;;2.73;92.23
71857;BME280;63344;46.980;28.882;2023-04-05T07:25:06;100090.78;;;2.71;92.46
71857;BME280;63344;46.980;28.882;2023-04-05T07:27:36;100106.59;;;2.68;92.37
71857;BME280;63344;46.980;28.882;2023-04-05T07:30:06;100090.81;;;2.69;92.67
71857;BME280;63344;46.980;28.882;2023-04-05T07:32:35;100101.38;;;2.65;92.23
71857;BME280;63344;46.980;28.882;2023-04-05T07:35:04;100079.53;;;2.66;92.63
71857;BME280;63344;46.980;28.882;2023-04-05T07:37:31;100086.47;;;2.68;92.33
71857;BME280;63344;46.980;28.882;2023-04-05T07:40:25;100075.13;;;2.68;92.44
71857;BME280;63344;46.980;28.882;2023-04-05T07:43:10;100071.66;;;2.64;92.50
71857;BME280;63344;46.980;28.882;2023-04-05T07:45:37;100086.47;;;2.68;92.91
71857;BME280;63344;46.980;28.882;2023-04-05T07:48:06;100096.00;;;2.72;93.42
71857;BME280;63344;46.980;28.882;2023-04-05T07:50:34;100110.84;;;2.73;92.92
71857;BME280;63344;46.980;28.882;2023-04-05T07:53:03;100110.00;;;2.71;92.71
71857;BME280;63344;46.980;28.882;2023-04-05T07:55:37;100121.38;;;2.70;92.86
71857;BME280;63344;46.980;28.882;2023-04-05T07:58:05;100094.38;;;2.65;92.18
71857;BME280;63344;46.980;28.882;2023-04-05T08:00:37;100099.56;;;2.70;92.63
71857;BME280;63344;46.980;28.882;2023-04-05T08:03:05;100095.16;;;2.70;92.99
71857;BME280;63344;46.980;28.882;2023-04-05T08:05:35;100082.06;;;2.70;92.95
71857;BME280;63344;46.980;28.882;2023-04-05T08:08:02;100081.16;;;2.71;93.03
71857;BME280;63344;46.980;28.882;2023-04-05T08:10:31;100086.38;;;2.74;93.20
71857;BME280;63344;46.980;28.882;2023-04-05T08:12:58;100075.81;;;2.77;92.92
71857;BME280;63344;46.980;28.882;2023-04-05T08:15:25;100088.84;;;2.84;93.28
71857;BME280;63344;46.980;28.882;2023-04-05T08:17:53;100087.88;;;2.89;92.96
71857;BME280;63344;46.980;28.882;2023-04-05T08:20:20;100102.66;;;2.93;93.04
71857;BME280;63344;46.980;28.882;2023-04-05T08:22:50;100090.44;;;2.94;92.79
71857;BME280;63344;46.980;28.882;2023-04-05T08:25:21;100099.19;;;2.93;92.51
71857;BME280;63344;46.980;28.882;2023-04-05T08:27:54;100071.28;;;2.89;92.30
71857;BME280;63344;46.980;28.882;2023-04-05T08:30:23;100090.59;;;2.83;92.05
71857;BME280;63344;46.980;28.882;2023-04-05T08:32:54;100086.28;;;2.81;92.17
71857;BME280;63344;46.980;28.882;2023-04-05T08:35:23;100096.72;;;2.84;92.71
71857;BME280;63344;46.980;28.882;2023-04-05T08:37:51;100092.31;;;2.86;91.97
71857;BME280;63344;46.980;28.882;2023-04-05T08:40:19;100092.38;;;2.81;92.20
71857;BME280;63344;46.980;28.882;2023-04-05T08:42:57;100089.81;;;2.78;92.35
71857;BME280;63344;46.980;28.882;2023-04-05T08:45:31;100078.41;;;2.79;92.15
71857;BME280;63344;46.980;28.882;2023-04-05T08:48:10;100075.69;;;2.87;92.41
71857;BME280;63344;46.980;28.882;2023-04-05T08:50:38;100064.38;;;2.83;91.35
71857;BME280;63344;46.980;28.882;2023-04-05T08:53:06;100087.09;;;2.83;91.57
71857;BME280;63344;46.980;28.882;2023-04-05T08:55:38;100083.63;;;2.84;91.32
71857;BME280;63344;46.980;28.882;2023-04-05T08:58:11;100086.22;;;2.84;91.47
71857;BME280;63344;46.980;28.882;2023-04-05T09:00:40;100095.88;;;2.82;91.64
71857;BME280;63344;46.980;28.882;2023-04-05T09:03:17;100102.00;;;2.81;91.53
71857;BME280;63344;46.980;28.882;2023-04-05T09:05:49;100100.34;;;2.75;91.79
71857;BME280;63344;46.980;28.882;2023-04-05T09:08:22;100097.72;;;2.75;91.97
71857;BME280;63344;46.980;28.882;2023-04-05T09:10:49;100089.00;;;2.73;91.50
71857;BME280;63344;46.980;28.882;2023-04-05T09:13:20;100089.94;;;2.69;91.10
71857;BME280;63344;46.980;28.882;2023-04-05T09:15:48;100075.91;;;2.71;91.53
71857;BME280;63344;46.980;28.882;2023-04-05T09:18:15;100093.38;;;2.72;91.91
71857;BME280;63344;46.980;28.882;2023-04-05T09:21:06;100077.69;;;2.71;91.87
71857;BME280;63344;46.980;28.882;2023-04-05T09:23:34;100088.16;;;2.72;91.54
71857;BME280;63344;46.980;28.882;2023-04-05T09:26:22;100073.25;;;2.76;91.77
71857;BME280;63344;46.980;28.882;2023-04-05T09:28:50;100074.94;;;2.78;91.43
71857;BME280;63344;46.980;28.882;2023-04-05T09:31:50;100084.50;;;2.81;90.78
71857;BME280;63344;46.980;28.882;2023-04-05T09:34:25;100079.31;;;2.78;91.14
71857;BME280;63344;46.980;28.882;2023-04-05T09:36:54;100071.47;;;2.78;90.98
71857;BME280;63344;46.980;28.882;2023-04-05T09:39:30;100076.69;;;2.78;90.62
71857;BME280;63344;46.980;28.882;2023-04-05T09:42:05;100085.44;;;2.77;90.35
71857;BME280;63344;46.980;28.882;2023-04-05T09:44:55;100109.13;;;2.72;90.28
71857;BME280;63344;46.980;28.882;2023-04-05T09:47:26;100097.78;;;2.72;90.68
71857;BME280;63344;46.980;28.882;2023-04-05T09:50:20;100100.41;;;2.70;90.65
71857;BME280;63344;46.980;28.882;2023-04-05T09:52:47;100090.66;;;2.80;90.83
71857;BME280;63344;46.980;28.882;2023-04-05T09:55:25;100059.13;;;2.83;90.34
71857;BME280;63344;46.980;28.882;2023-04-05T09:57:53;100088.06;;;2.78;90.19
71857;BME280;63344;46.980;28.882;2023-04-05T10:00:21;100083.63;;;2.82;90.40
71857;BME280;63344;46.980;28.882;2023-04-05T10:02:55;100077.47;;;2.83;90.35
71857;BME280;63344;46.980;28.882;2023-04-05T10:05:27;100061.75;;;2.83;90.37
71857;BME280;63344;46.980;28.882;2023-04-05T10:07:55;100082.72;;;2.85;90.05
71857;BME280;63344;46.980;28.882;2023-04-05T10:10:24;100074.75;;;2.91;90.32
71857;BME280;63344;46.980;28.882;2023-04-05T10:12:52;100066.84;;;2.94;90.29
71857;BME280;63344;46.980;28.882;2023-04-05T10:15:20;100068.50;;;2.98;89.67
71857;BME280;63344;46.980;28.882;2023-04-05T10:17:55;100054.56;;;2.96;89.48
71857;BME280;63344;46.980;28.882;2023-04-05T10:20:27;100079.94;;;2.94;89.27
71857;BME280;63344;46.980;28.882;2023-04-05T10:23:07;100025.75;;;2.93;89.20
71857;BME280;63344;46.980;28.882;2023-04-05T10:26:09;100049.34;;;2.93;88.99
71857;BME280;63344;46.980;28.882;2023-04-05T10:28:42;100066.84;;;2.94;88.57
71857;BME280;63344;46.980;28.882;2023-04-05T10:34:07;100058.13;;;2.92;88.42
71857;BME280;63344;46.980;28.882;2023-04-05T10:39:39;100088.66;;;2.94;88.49
71857;BME280;63344;46.980;28.882;2023-04-05T10:44:42;100064.34;;;2.86;88.14
71857;BME280;63344;46.980;28.882;2023-04-05T10:47:13;100081.03;;;2.81;88.31
71857;BME280;63344;46.980;28.882;2023-04-05T10:49:45;100089.00;;;2.74;88.50
71857;BME280;63344;46.980;28.882;2023-04-05T10:52:15;100088.19;;;2.69;88.66
71857;BME280;63344;46.980;28.882;2023-04-05T10:54:44;100078.69;;;2.64;89.19
71857;BME280;63344;46.980;28.882;2023-04-05T10:57:12;100073.44;;;2.64;88.78
71857;BME280;63344;46.980;28.882;2023-04-05T10:59:42;100103.16;;;2.63;89.08
71857;BME280;63344;46.980;28.882;2023-04-05T11:02:11;100089.16;;;2.64;89.54
71857;BME280;63344;46.980;28.882;2023-04-05T11:04:40;100090.00;;;2.66;90.23
71857;BME280;63344;46.980;28.882;2023-04-05T11:07:15;100082.09;;;2.67;89.93
71857;BME280;63344;46.980;28.882;2023-04-05T11:10:03;100099.66;;;2.62;89.46
71857;BME280;63344;46.980;28.882;2023-04-05T11:18:06;100101.50;;;2.55;89.41
71857;BME280;63344;46.980;28.882;2023-04-05T11:20:51;100097.97;;;2.58;90.02
71857;BME280;63344;46.980;28.882;2023-04-05T11:23:23;100101.44;;;2.60;89.45
71857;BME280;63344;46.980;28.882;2023-04-05T11:26:10;100103.19;;;2.59;89.53
71857;BME280;63344;46.980;28.882;2023-04-05T11:28:38;100104.94;;;2.61;89.26
71857;BME280;63344;46.980;28.882;2023-04-05T11:31:15;100110.19;;;2.57;89.39
71857;BME280;63344;46.980;28.882;2023-04-05T11:44:42;100115.41;;;2.62;89.59
71857;BME280;63344;46.980;28.882;2023-04-05T11:47:11;100134.63;;;2.61;89.26
71857;BME280;63344;46.980;28.882;2023-04-05T11:49:39;100115.41;;;2.61;89.60
71857;BME280;63344;46.980;28.882;2023-04-05T11:52:13;100111.03;;;2.61;89.43
71857;BME280;63344;46.980;28.882;2023-04-05T11:54:41;100110.16;;;2.62;89.08
71857;BME280;63344;46.980;28.882;2023-04-05T11:57:18;100107.56;;;2.57;88.23
71857;BME280;63344;46.980;28.882;2023-04-05T11:59:45;100089.28;;;2.54;88.64
71857;BME280;63344;46.980;28.882;2023-04-05T12:02:13;100112.97;;;2.50;88.23
71857;BME280;63344;46.980;28.882;2023-04-05T12:04:40;100109.50;;;2.48;88.49
71857;BME280;63344;46.980;28.882;2023-04-05T12:07:16;100102.50;;;2.47;88.67
71857;BME280;63344;46.980;28.882;2023-04-05T12:12:47;100089.41;;;2.45;88.96
71857;BME280;63344;46.980;28.882;2023-04-05T12:15:15;100100.81;;;2.43;88.34
71857;BME280;63344;46.980;28.882;2023-04-05T12:17:48;100100.78;;;2.46;88.72
71857;BME280;63344;46.980;28.882;2023-04-05T12:20:20;100103.34;;;2.47;88.55
71857;BME280;63344;46.980;28.882;2023-04-05T12:22:59;100102.47;;;2.48;88.52
71857;BME280;63344;46.980;28.882;2023-04-05T12:25:27;100109.50;;;2.48;87.76
71857;BME280;63344;46.980;28.882;2023-04-05T12:27:54;100113.88;;;2.46;88.26
71857;BME280;63344;46.980;28.882;2023-04-05T12:30:22;100092.91;;;2.46;88.18
71857;BME280;63344;46.980;28.882;2023-04-05T12:32:56;100097.28;;;2.44;88.06
71857;BME280;63344;46.980;28.882;2023-04-05T12:35:32;100100.06;;;2.34;88.22
71857;BME280;63344;46.980;28.882;2023-04-05T12:38:13;100080.84;;;2.34;88.06
71857;BME280;63344;46.980;28.882;2023-04-05T12:40:42;100070.31;;;2.35;88.43
71857;BME280;63344;46.980;28.882;2023-04-05T12:43:11;100066.84;;;2.35;88.34
71857;BME280;63344;46.980;28.882;2023-04-05T12:45:46;100075.56;;;2.37;88.61
71857;BME280;63344;46.980;28.882;2023-04-05T12:48:31;100072.06;;;2.38;88.03
71857;BME280;63344;46.980;28.882;2023-04-05T12:51:02;100074.72;;;2.33;88.21
71857;BME280;63344;46.980;28.882;2023-04-05T12:53:31;100052.13;;;2.28;88.50
71857;BME280;63344;46.980;28.882;2023-04-05T12:55:59;100067.78;;;2.31;88.40
71857;BME280;63344;46.980;28.882;2023-04-05T12:58:34;100043.38;;;2.27;88.14
71857;BME280;63344;46.980;28.882;2023-04-05T13:01:02;100032.97;;;2.24;88.45
71857;BME280;63344;46.980;28.882;2023-04-05T13:03:30;100052.16;;;2.25;88.86
71857;BME280;63344;46.980;28.882;2023-04-05T13:05:57;100058.22;;;2.28;89.19
71857;BME280;63344;46.980;28.882;2023-04-05T13:08:26;100046.03;;;2.26;89.21
71857;BME280;63344;46.980;28.882;2023-04-05T13:10:54;100044.28;;;2.25;89.28
71857;BME280;63344;46.980;28.882;2023-04-05T13:13:24;100025.94;;;2.26;89.48
71857;BME280;63344;46.980;28.882;2023-04-05T13:15:51;100032.06;;;2.25;89.59
71857;BME280;63344;46.980;28.882;2023-04-05T13:18:19;100022.56;;;2.18;89.56
71857;BME280;63344;46.980;28.882;2023-04-05T13:20:46;100018.25;;;2.14;90.00
71857;BME280;63344;46.980;28.882;2023-04-05T13:23:16;100029.66;;;2.10;90.26
71857;BME280;63344;46.980;28.882;2023-04-05T13:25:43;100026.16;;;2.11;90.84
71857;BME280;63344;46.980;28.882;2023-04-05T13:28:13;100022.69;;;2.09;90.80
71857;BME280;63344;46.980;28.882;2023-04-05T13:30:41;100015.66;;;2.11;91.24
71857;BME280;63344;46.980;28.882;2023-04-05T13:33:16;99976.38;;;2.12;91.06
71857;BME280;63344;46.980;28.882;2023-04-05T13:35:47;100010.44;;;2.11;91.08
71857;BME280;63344;46.980;28.882;2023-04-05T13:38:15;100009.59;;;2.07;91.32
71857;BME280;63344;46.980;28.882;2023-04-05T13:40:48;100007.00;;;2.06;91.50
71857;BME280;63344;46.980;28.882;2023-04-05T13:43:17;100002.69;;;2.03;91.49